Terminal Aerodrome Forecast
Issued by NWS

Home | Current Version | Previous Version | Text Only | Print | Product List | Glossary On
Versions: 1 2 3 4 5 6 7 8 9 10 11 12 13
000
FTUS45 KRIW 271121
TAFCOD
TAF
KCOD 271121Z 2712/2812 22006KT P6SM SCT080 BKN120
     FM272000 03007KT P6SM SCT040 BKN070
     FM280500 36011G17KT P6SM VCSH SCT030 BKN050
     FM281000 35014KT P6SM -RA SCT020 BKN035
      AMD LTD TO CLD VIS AND WIND=

USA.gov is the U.S. government's official web portal to all federal, state and local government web resources and services.